Brandon, SD (57005)

1:55 PM CST on February 08, 2016 (GMT -0600)
IEM | | Change Station
CLOSE
Current Station
Personal Weather Station
Location: Brandon, SD
Elevation: 1368 ft
Nearby Weather Stations
Active Advisory: Winter Weather Advisory Active Notice: Public Information Statement

Elev 1368 ft 43.60 °N, 96.58 °W | Updated 19 minutes ago

Snow
Snow
21 °F
Feels Like 2 °F
N
33
Wind Variable Wind from West
Gusts 0.0 mph

Today
High -- | Low -- °F
--% Chance of Precip.
Yesterday
High -- | Low -- °F
Precip. -- in
Pressure 30.09 in
Visibility 7.0 miles
Clouds Mostly Cloudy 2400 ft
Mostly Cloudy 3400 ft
Windchill 2 °F
Dew Point 21 °F
Humidity 100%
Rainfall in
Snow Depth Not available.
7:34 AM 5:46 PM
New Moon, 0% visible
SPECI KFSD 081949Z 34022G28KT 7SM BKN024 BKN034 M05/M09 A3009 RMK AO2 PK WND 33031/1936 SNE49 DRSN P0000 T10501094
Pressure 30.09 in
Visibility 7.0 miles
Clouds Mostly Cloudy 2400 ft
Mostly Cloudy 3400 ft
Windchill 2 °F
Dew Point 21 °F
Humidity 100%
Rainfall in
Snow Depth Not available.
7:34 AM 5:46 PM
New Moon, 0% visible
SPECI KFSD 081949Z 34022G28KT 7SM BKN024 BKN034 M05/M09 A3009 RMK AO2 PK WND 33031/1936 SNE49 DRSN P0000 T10501094

10-Day Weather Forecast

Almanac

Astronomy

Feb. 08, 2016 Rise Set
Actual Time
Civil Twilight
Nautical Twilight
Astronomical Twilight
Moon
Length of Visible Light
Length of Day
Tomorrow will be .
, % of the Moon is Illuminated

Today's Extremes

State Highs State Lows

Community

WunderPhotos

Upload Photos

1,891,499 photos uploaded!

WunderBlog® & News

Nearby

Air Quality

  Air Quality AQ Index Pollutant
Not available.

Snow Depth

Station Depth Elevation

Earthquake Activity

City Distance Mag. Time & Date
Minimum magnitude displayed is 2.5.

Coastal Water Temperatures

Place Temperature

Stations

Nearby Weather Stations

Station Location Temp. Windchill Dew Point Humidity Wind Precip. Elev Updated Type
                   

Watches & Warnings

Winter Weather Advisory
Issued: 9:19 AM CST Feb. 8, 2016 – National Weather Service

... Winter Weather Advisory now in effect until 6 PM CST this
evening...

* timing... light snow will gradually taper off by early afternoon... but
areas of blowing snow will continue.

* Accumulations... little additional accumulation is expected
today.

* Wind and visibility... northwest winds of 25 to 35 mph with gusts
to 45 mph will persist into the afternoon hours. With a half an
inch of new snow in many locations... this will create periods of
reduced visibility and slick driving conditions.

* Impacts... travel will be very difficult... travel will begin to
improve by sunset.

Precautionary/preparedness actions...

A Winter Weather Advisory for blowing snow means that
visibilities will be limited due to strong winds blowing snow
around. Use caution when traveling... especially in open areas.